Time;durP1;ratioP1;P1;durP2;ratioP2;P2;SDS_P1;SDS_P2;PMS_P1;PMS_P2;Temp;Humidity;BMP_temperature;BMP_pressure;BME280_temperature;BME280_humidity;BME280_pressure;Samples;Min_cycle;Max_cycle;Signal;HPM_P1;HPM_P2
2022/03/15 00:02:08;;;;;;;9.23;3.40;;;8.20;99.90;;;;;;5074663;28;20476;-68
2022/03/15 00:04:34;;;;;;;9.90;3.40;;;8.10;99.90;;;;;;5075799;28;20392;-68
2022/03/15 00:06:59;;;;;;;10.47;3.57;;;8.10;99.90;;;;;;5076051;28;20380;-68
2022/03/15 00:09:25;;;;;;;8.67;3.60;;;8.10;99.90;;;;;;5075487;28;20659;-67
2022/03/15 00:11:54;;;;;;;5.47;3.22;;;8.00;99.90;;;;;;5078801;28;20020;-68
2022/03/15 00:14:20;;;;;;;7.18;3.05;;;8.10;99.90;;;;;;5075064;28;20071;-67
2022/03/15 00:16:46;;;;;;;;;;;8.10;99.90;;;;;;5074392;28;20245;-67
2022/03/15 00:19:13;;;;;;;7.95;3.17;;;8.00;99.90;;;;;;5074876;28;20364;-67
2022/03/15 00:21:38;;;;;;;8.18;3.03;;;8.00;99.90;;;;;;5074769;28;20099;-67
2022/03/15 00:24:06;;;;;;;7.22;2.65;;;8.00;99.90;;;;;;5074817;28;20053;-67
2022/03/15 00:26:32;;;;;;;7.10;2.78;;;7.90;99.90;;;;;;5075155;28;20036;-68
2022/03/15 00:28:58;;;;;;;;;;;7.90;99.90;;;;;;5075360;28;20099;-68
2022/03/15 00:31:25;;;;;;;6.20;2.63;;;7.90;99.90;;;;;;5074848;28;20351;-68
2022/03/15 00:33:50;;;;;;;7.70;2.60;;;7.80;99.90;;;;;;5073435;28;20027;-69
2022/03/15 00:36:16;;;;;;;10.02;3.40;;;7.90;99.90;;;;;;5073268;28;20017;-68
2022/03/15 00:38:42;;;;;;;9.57;2.80;;;7.80;99.90;;;;;;5073007;28;20485;-68
2022/03/15 00:41:09;;;;;;;9.25;2.85;;;7.90;99.90;;;;;;5073198;28;20133;-68
2022/03/15 00:43:35;;;;;;;9.35;3.00;;;7.80;99.90;;;;;;5073117;28;20086;-66
2022/03/15 00:46:02;;;;;;;;;;;7.80;99.90;;;;;;5074693;28;20023;-67
2022/03/15 00:48:27;;;;;;;7.18;3.20;;;7.80;99.90;;;;;;5073983;28;19910;-68
2022/03/15 00:50:54;;;;;;;8.48;3.25;;;7.80;99.90;;;;;;5073326;28;20087;-68
2022/03/15 00:53:19;;;;;;;10.32;3.45;;;7.80;99.90;;;;;;5073615;28;20029;-67
2022/03/15 00:55:46;;;;;;;6.63;3.13;;;7.70;99.90;;;;;;5074118;28;20035;-68
2022/03/15 00:58:12;;;;;;;;;;;7.70;99.90;;;;;;5073028;28;20025;-68
2022/03/15 01:00:37;;;;;;;13.00;3.50;;;7.70;99.90;;;;;;5072634;28;19911;-68
2022/03/15 01:03:04;;;;;;;5.77;3.10;;;7.80;99.90;;;;;;5073750;28;20028;-68
2022/03/15 01:05:30;;;;;;;;;;;7.70;99.90;;;;;;5074318;28;20039;-68
2022/03/15 01:07:56;;;;;;;8.52;3.42;;;7.70;99.90;;;;;;5073645;28;19915;-68
2022/03/15 01:10:22;;;;;;;9.17;3.50;;;7.60;99.90;;;;;;5074192;28;20029;-68
2022/03/15 01:12:47;;;;;;;6.38;3.33;;;7.60;99.90;;;;;;5073729;28;20048;-68
2022/03/15 01:15:13;;;;;;;6.88;3.20;;;7.60;99.90;;;;;;5073701;28;20439;-68
2022/03/15 01:17:39;;;;;;;7.30;3.17;;;7.60;99.90;;;;;;5074022;28;20020;-67
2022/03/15 01:20:07;;;;;;;8.85;3.70;;;7.60;99.90;;;;;;5073695;28;20017;-67
2022/03/15 01:22:33;;;;;;;6.85;3.15;;;7.60;99.90;;;;;;5074036;28;20536;-68
2022/03/15 01:24:59;;;;;;;8.80;3.87;;;7.70;99.90;;;;;;5072409;28;20032;-67
2022/03/15 01:27:25;;;;;;;11.77;3.63;;;7.70;99.90;;;;;;5073777;28;20105;-67
2022/03/15 01:29:50;;;;;;;7.60;3.47;;;7.60;99.90;;;;;;5073877;28;20130;-68
2022/03/15 01:32:16;;;;;;;7.80;3.80;;;7.60;99.90;;;;;;5074165;28;20262;-67
2022/03/15 01:34:42;;;;;;;6.10;3.08;;;7.60;99.90;;;;;;5074222;28;20025;-68
2022/03/15 01:37:08;;;;;;;7.40;3.17;;;7.60;99.90;;;;;;5073054;28;20036;-68
2022/03/15 01:39:33;;;;;;;12.63;4.67;;;7.60;99.90;;;;;;5074503;28;20020;-67
2022/03/15 01:41:59;;;;;;;7.67;3.10;;;7.50;99.90;;;;;;5073963;28;20025;-68
2022/03/15 01:44:26;;;;;;;7.13;3.50;;;7.50;99.90;;;;;;5075992;28;20090;-68
2022/03/15 01:46:53;;;;;;;6.97;3.28;;;7.50;99.90;;;;;;5074492;28;20116;-68
2022/03/15 01:49:19;;;;;;;8.32;3.47;;;7.50;99.90;;;;;;5072853;28;20020;-68
2022/03/15 01:51:46;;;;;;;7.40;3.38;;;7.50;99.90;;;;;;5074258;28;20020;-68
2022/03/15 01:54:13;;;;;;;10.40;3.03;;;7.50;99.90;;;;;;5073512;28;20040;-68
2022/03/15 01:56:40;;;;;;;6.80;3.33;;;7.50;99.90;;;;;;5072195;28;20115;-68
2022/03/15 01:59:08;;;;;;;10.07;2.97;;;7.50;99.90;;;;;;5073069;28;20017;-68
2022/03/15 02:01:34;;;;;;;9.30;3.45;;;7.60;99.90;;;;;;5071833;28;20017;-67
2022/03/15 02:04:00;;;;;;;6.70;2.60;;;7.60;99.90;;;;;;5072311;28;20020;-69
2022/03/15 02:06:25;;;;;;;7.03;2.97;;;7.60;99.90;;;;;;5073436;28;20024;-67
2022/03/15 02:08:51;;;;;;;7.03;2.90;;;7.60;99.90;;;;;;5071857;28;20501;-68
2022/03/15 02:11:17;;;;;;;9.40;3.00;;;7.60;99.90;;;;;;5071821;28;20060;-68
2022/03/15 02:13:44;;;;;;;9.47;2.93;;;7.70;99.90;;;;;;5073672;28;20270;-68
2022/03/15 02:16:10;;;;;;;6.72;2.90;;;7.70;99.90;;;;;;5073210;28;20263;-67
2022/03/15 02:18:35;;;;;;;4.07;2.63;;;7.80;99.90;;;;;;5072933;28;20385;-68
2022/03/15 02:21:01;;;;;;;8.77;3.10;;;7.80;99.90;;;;;;5072972;28;20032;-67
2022/03/15 02:23:27;;;;;;;6.57;3.27;;;7.80;99.90;;;;;;5073188;28;20027;-68
2022/03/15 02:25:52;;;;;;;9.50;3.43;;;7.90;99.90;;;;;;5072840;28;20024;-68
2022/03/15 02:28:18;;;;;;;7.03;2.70;;;7.80;99.90;;;;;;5071669;28;20094;-68
2022/03/15 02:30:43;;;;;;;5.60;2.80;;;7.80;99.90;;;;;;5071740;28;20427;-68
2022/03/15 02:33:09;;;;;;;5.03;3.23;;;7.70;99.90;;;;;;5072961;28;20051;-68
2022/03/15 02:35:35;;;;;;;8.43;3.43;;;7.70;99.90;;;;;;5073313;28;20111;-68
2022/03/15 02:38:01;;;;;;;7.77;3.47;;;7.70;99.90;;;;;;5071346;28;20073;-68
2022/03/15 02:40:29;;;;;;;7.28;3.53;;;7.70;99.90;;;;;;5071563;28;20332;-67
2022/03/15 02:42:55;;;;;;;6.55;3.20;;;7.70;99.90;;;;;;5072788;28;20025;-68
2022/03/15 02:45:22;;;;;;;6.03;2.67;;;7.70;99.90;;;;;;5071601;28;20523;-68
2022/03/15 02:47:48;;;;;;;7.50;3.78;;;7.70;99.90;;;;;;5071445;28;20029;-68
2022/03/15 02:50:14;;;;;;;;;;;7.60;99.90;;;;;;5073428;28;20059;-68
2022/03/15 02:52:39;;;;;;;5.85;3.03;;;7.60;99.90;;;;;;5071433;28;19905;-67
2022/03/15 02:55:06;;;;;;;8.20;3.33;;;7.50;99.90;;;;;;5071738;28;20496;-68
2022/03/15 02:57:32;;;;;;;;;;;7.50;99.90;;;;;;5073455;28;20021;-68
2022/03/15 02:59:57;;;;;;;8.40;3.42;;;7.50;99.90;;;;;;5071664;28;20023;-68
2022/03/15 03:02:23;;;;;;;6.23;3.50;;;7.40;99.90;;;;;;5072218;28;20096;-68
2022/03/15 03:04:50;;;;;;;10.70;3.60;;;7.40;99.90;;;;;;5071633;28;20206;-68
2022/03/15 03:07:17;;;;;;;11.90;3.75;;;7.30;99.90;;;;;;5071277;28;20041;-68
2022/03/15 03:09:43;;;;;;;5.95;2.90;;;7.30;99.90;;;;;;5072644;28;20032;-68
2022/03/15 03:12:09;;;;;;;9.10;3.10;;;7.30;99.90;;;;;;5072698;28;20016;-67
2022/03/15 03:14:35;;;;;;;9.48;3.40;;;7.30;99.90;;;;;;5073959;28;20099;-67
2022/03/15 03:17:00;;;;;;;9.82;3.05;;;7.30;99.90;;;;;;5077302;28;20024;-68
2022/03/15 03:19:27;;;;;;;7.60;3.07;;;7.30;99.90;;;;;;5077437;28;20047;-67
2022/03/15 03:21:52;;;;;;;;;;;7.20;99.90;;;;;;5078625;28;20017;-68
2022/03/15 03:24:23;;;;;;;11.35;2.95;;;7.20;99.90;;;;;;5079314;28;19905;-68
2022/03/15 03:26:49;;;;;;;9.15;3.42;;;7.20;99.90;;;;;;5077973;28;20016;-68
2022/03/15 03:29:15;;;;;;;11.20;3.90;;;7.20;99.90;;;;;;5079259;28;20020;-67
2022/03/15 03:31:43;;;;;;;7.15;3.13;;;7.20;99.90;;;;;;5078125;28;20029;-68
2022/03/15 03:34:11;;;;;;;6.88;3.75;;;7.20;99.90;;;;;;5077621;28;20059;-68
2022/03/15 03:36:37;;;;;;;8.60;3.63;;;7.20;99.90;;;;;;5078496;28;20099;-68
2022/03/15 03:39:04;;;;;;;6.82;3.33;;;7.30;99.90;;;;;;5074596;28;20025;-67
2022/03/15 03:41:30;;;;;;;7.18;3.60;;;7.30;99.90;;;;;;5075787;28;20116;-68
2022/03/15 03:44:00;;;;;;;9.50;3.85;;;7.30;99.90;;;;;;5076268;28;20111;-68
2022/03/15 03:46:27;;;;;;;8.27;3.05;;;7.30;99.90;;;;;;5074613;28;20393;-68
2022/03/15 03:48:53;;;;;;;7.00;3.88;;;7.30;99.90;;;;;;5075448;28;20024;-68
2022/03/15 03:51:19;;;;;;;6.35;3.05;;;7.30;99.90;;;;;;5075540;28;20158;-69
2022/03/15 03:53:45;;;;;;;9.67;3.17;;;7.40;99.90;;;;;;5075692;28;20369;-69
2022/03/15 03:56:11;;;;;;;7.57;3.00;;;7.40;99.90;;;;;;5075657;28;20035;-69
2022/03/15 03:58:37;;;;;;;10.45;3.55;;;7.50;99.90;;;;;;5075287;28;20036;-68
2022/03/15 04:01:03;;;;;;;8.63;3.17;;;7.50;99.90;;;;;;5074000;28;20112;-69
2022/03/15 04:03:31;;;;;;;9.57;3.55;;;7.60;99.90;;;;;;5073958;28;20020;-68
2022/03/15 04:05:57;;;;;;;8.57;3.78;;;7.60;99.90;;;;;;5075269;28;20074;-68
2022/03/15 04:08:24;;;;;;;5.97;3.17;;;7.60;99.90;;;;;;5075130;28;20064;-68
2022/03/15 04:10:50;;;;;;;8.40;3.42;;;7.60;99.90;;;;;;5080083;28;20021;-68
2022/03/15 04:13:18;;;;;;;7.13;3.47;;;7.60;99.90;;;;;;5075705;28;20024;-68
2022/03/15 04:15:47;;;;;;;12.57;4.13;;;7.70;99.90;;;;;;5075407;28;20089;-69
2022/03/15 04:18:13;;;;;;;12.48;3.80;;;7.80;99.90;;;;;;5074860;28;20505;-68
2022/03/15 04:20:39;;;;;;;6.65;3.40;;;7.80;99.90;;;;;;5075087;28;20024;-68
2022/03/15 04:23:05;;;;;;;8.18;3.58;;;7.80;99.90;;;;;;5073838;28;20046;-68
2022/03/15 04:25:31;;;;;;;8.37;3.13;;;7.80;99.90;;;;;;5074885;28;20096;-67
2022/03/15 04:28:00;;;;;;;7.07;3.50;;;7.80;99.90;;;;;;5074096;28;20020;-68
2022/03/15 04:30:32;;;;;;;6.28;3.70;;;7.80;99.90;;;;;;5073733;28;20032;-68
2022/03/15 04:32:58;;;;;;;8.52;3.67;;;7.80;99.90;;;;;;5075074;28;20056;-70
2022/03/15 04:35:25;;;;;;;7.88;3.80;;;7.80;99.90;;;;;;5074703;28;20029;-67
2022/03/15 04:37:52;;;;;;;6.85;3.72;;;7.80;99.90;;;;;;5074461;28;20036;-68
2022/03/15 04:40:18;;;;;;;6.68;3.25;;;7.80;99.90;;;;;;5073415;28;20029;-68
2022/03/15 04:42:45;;;;;;;;;;;7.90;99.90;;;;;;5073654;28;20024;-67
2022/03/15 04:45:11;;;;;;;6.47;3.55;;;8.00;99.90;;;;;;5075004;28;19954;-69
2022/03/15 04:47:37;;;;;;;10.45;4.60;;;8.00;99.90;;;;;;5075963;28;20115;-68
2022/03/15 04:50:03;;;;;;;5.93;3.22;;;8.00;99.90;;;;;;5077009;28;20064;-68
2022/03/15 04:52:29;;;;;;;9.77;3.80;;;8.00;99.90;;;;;;5075973;28;20029;-68
2022/03/15 04:54:55;;;;;;;9.43;3.90;;;7.90;99.90;;;;;;5075117;28;20047;-69
2022/03/15 04:57:20;;;;;;;8.47;3.87;;;8.00;99.90;;;;;;5074344;28;20032;-68
2022/03/15 04:59:46;;;;;;;8.37;3.47;;;8.10;99.90;;;;;;5073907;28;20263;-69
2022/03/15 05:02:12;;;;;;;6.28;4.22;;;8.00;99.90;;;;;;5074100;28;20017;-68
2022/03/15 05:04:37;;;;;;;9.53;3.67;;;8.00;99.90;;;;;;5073885;28;20074;-68
2022/03/15 05:07:03;;;;;;;9.67;3.57;;;8.00;99.90;;;;;;5073902;28;20021;-68
2022/03/15 05:09:29;;;;;;;6.10;3.60;;;8.00;99.90;;;;;;5073780;28;20025;-68
2022/03/15 05:11:55;;;;;;;8.38;3.60;;;8.00;99.90;;;;;;5073883;28;20036;-68
2022/03/15 05:14:21;;;;;;;10.02;4.00;;;7.90;99.90;;;;;;5072668;28;20393;-66
2022/03/15 05:16:46;;;;;;;5.50;3.47;;;7.90;99.90;;;;;;5074808;28;20029;-67
2022/03/15 05:19:12;;;;;;;8.57;3.30;;;7.90;99.90;;;;;;5074266;28;20036;-68
2022/03/15 05:21:38;;;;;;;8.02;3.83;;;7.90;99.90;;;;;;5075691;28;20025;-69
2022/03/15 05:24:04;;;;;;;9.57;3.53;;;7.90;99.90;;;;;;5075026;28;20028;-67
2022/03/15 05:26:29;;;;;;;7.65;4.13;;;7.90;99.90;;;;;;5074548;28;20468;-67
2022/03/15 05:28:55;;;;;;;7.47;3.60;;;7.90;99.90;;;;;;5074707;28;20043;-68
2022/03/15 05:31:22;;;;;;;8.00;4.10;;;7.90;99.90;;;;;;5075296;28;20113;-71
2022/03/15 05:33:49;;;;;;;8.23;3.97;;;7.80;99.90;;;;;;5073651;28;20032;-68
2022/03/15 05:36:15;;;;;;;9.48;3.92;;;7.80;99.90;;;;;;5075905;28;20055;-68
2022/03/15 05:38:41;;;;;;;14.13;3.90;;;7.80;99.90;;;;;;5074313;28;20457;-68
2022/03/15 05:41:08;;;;;;;;;;;7.70;99.90;;;;;;5073433;28;20028;-66
2022/03/15 05:43:34;;;;;;;7.30;4.07;;;7.90;99.90;;;;;;5074480;28;19914;-68
2022/03/15 05:46:00;;;;;;;;;;;7.90;99.90;;;;;;5073691;28;20384;-68
2022/03/15 05:48:26;;;;;;;9.25;4.35;;;7.90;99.90;;;;;;5074344;28;19920;-68
2022/03/15 05:50:51;;;;;;;9.90;3.70;;;7.90;99.90;;;;;;5072929;28;20039;-68
2022/03/15 05:53:17;;;;;;;6.30;3.77;;;7.90;99.90;;;;;;5074232;28;20024;-68
2022/03/15 05:55:42;;;;;;;6.23;3.70;;;7.80;99.90;;;;;;5072200;28;20559;-70
2022/03/15 05:58:08;;;;;;;9.57;4.07;;;8.10;99.90;;;;;;5072846;28;20109;-70
2022/03/15 06:00:34;;;;;;;9.93;3.70;;;8.10;99.90;;;;;;5073772;28;20035;-70
2022/03/15 06:02:59;;;;;;;7.03;3.87;;;8.10;99.90;;;;;;5073596;28;20289;-69
2022/03/15 06:05:25;;;;;;;9.90;4.07;;;8.10;99.90;;;;;;5074274;28;20723;-69
2022/03/15 06:07:53;;;;;;;9.77;3.73;;;8.00;99.90;;;;;;5073693;28;20477;-69
2022/03/15 06:10:21;;;;;;;8.00;4.22;;;7.90;99.90;;;;;;5074086;28;20757;-70
2022/03/15 06:12:48;;;;;;;7.43;4.00;;;7.90;99.90;;;;;;5073536;28;20024;-72
2022/03/15 06:15:15;;;;;;;8.32;4.18;;;7.90;99.90;;;;;;5072019;28;20119;-71
2022/03/15 06:17:48;;;;;;;8.20;3.80;;;7.90;99.90;;;;;;5072136;28;20039;-70
2022/03/15 06:20:16;;;;;;;10.63;4.45;;;7.90;99.90;;;;;;5073724;28;20059;-70
2022/03/15 06:22:42;;;;;;;7.20;3.80;;;7.90;99.90;;;;;;5071815;28;20032;-70
2022/03/15 06:25:09;;;;;;;9.18;4.07;;;7.90;99.90;;;;;;5073574;28;20051;-71
2022/03/15 06:27:35;;;;;;;;;;;7.90;99.90;;;;;;5072917;28;20523;-70
2022/03/15 06:30:01;;;;;;;9.65;3.95;;;7.90;99.90;;;;;;5072210;28;19905;-70
2022/03/15 06:32:26;;;;;;;10.75;4.55;;;7.90;99.90;;;;;;5072567;28;20162;-70
2022/03/15 06:34:52;;;;;;;9.13;4.23;;;7.90;99.90;;;;;;5072125;28;20031;-71
2022/03/15 06:37:18;;;;;;;7.60;3.87;;;7.90;99.90;;;;;;5073260;28;20141;-71
2022/03/15 06:39:46;;;;;;;9.70;4.00;;;7.90;99.90;;;;;;5071951;28;20032;-70
2022/03/15 06:42:12;;;;;;;11.52;4.40;;;7.90;99.90;;;;;;5073556;28;20024;-70
2022/03/15 06:44:41;;;;;;;5.33;3.50;;;7.80;99.90;;;;;;5072350;28;20555;-71
2022/03/15 06:47:07;;;;;;;7.97;3.60;;;7.80;99.90;;;;;;5073467;28;20576;-68
2022/03/15 06:49:33;;;;;;;5.95;3.58;;;7.80;99.90;;;;;;5073240;28;20016;-68
2022/03/15 06:51:59;;;;;;;11.97;6.30;;;7.90;99.90;;;;;;5079833;28;20024;-74
2022/03/15 06:54:26;;;;;;;8.15;4.15;;;8.20;99.90;;;;;;5082193;28;20461;-72
2022/03/15 06:56:53;;;;;;;12.00;4.60;;;8.20;99.90;;;;;;5081773;28;20088;-74
2022/03/15 06:59:21;;;;;;;9.38;4.28;;;8.00;99.90;;;;;;5080542;28;20116;-73
2022/03/15 07:01:46;;;;;;;8.70;4.32;;;8.00;99.90;;;;;;5078611;28;20021;-71
2022/03/15 07:04:12;;;;;;;9.20;4.10;;;7.90;99.90;;;;;;5077696;28;20473;-71
2022/03/15 07:06:37;;;;;;;6.13;3.80;;;7.90;99.90;;;;;;5074955;28;20021;-70
2022/03/15 07:09:03;;;;;;;9.50;4.20;;;7.90;99.90;;;;;;5076302;28;20500;-66
2022/03/15 07:11:29;;;;;;;9.00;3.87;;;7.90;99.90;;;;;;5075761;28;20548;-68
2022/03/15 07:13:55;;;;;;;8.70;4.77;;;8.10;99.90;;;;;;5078194;28;20426;-68
2022/03/15 07:16:20;;;;;;;9.10;4.10;;;8.10;99.90;;;;;;5077401;28;20349;-71
2022/03/15 07:18:46;;;;;;;5.32;4.03;;;8.30;99.90;;;;;;5076284;28;20028;-72
2022/03/15 07:21:12;;;;;;;10.87;4.63;;;8.20;99.90;;;;;;5077619;28;20025;-70
2022/03/15 07:23:38;;;;;;;8.25;4.45;;;8.10;99.90;;;;;;5077852;28;20090;-70
2022/03/15 07:26:03;;;;;;;10.85;4.50;;;8.10;99.90;;;;;;5077715;28;20025;-70
2022/03/15 07:28:29;;;;;;;9.20;4.10;;;8.10;99.90;;;;;;5080545;28;20052;-71
2022/03/15 07:30:54;;;;;;;8.73;3.77;;;8.10;99.90;;;;;;5077951;28;20120;-71
2022/03/15 07:33:20;;;;;;;9.43;4.53;;;8.20;99.90;;;;;;5076412;28;20429;-73
2022/03/15 07:35:46;;;;;;;7.82;4.10;;;8.30;99.90;;;;;;5076325;28;20032;-69
2022/03/15 07:38:16;;;;;;;8.13;4.43;;;8.20;99.90;;;;;;5075999;28;20032;-71
2022/03/15 07:40:43;;;;;;;9.32;4.78;;;8.30;99.90;;;;;;5074886;28;20352;-70
2022/03/15 07:43:08;;;;;;;;;;;8.40;99.90;;;;;;5076314;28;20126;-71
2022/03/15 07:45:34;;;;;;;9.43;4.93;;;8.30;99.90;;;;;;5076076;28;20376;-71
2022/03/15 07:48:00;;;;;;;8.00;4.80;;;8.30;99.90;;;;;;5075048;28;20392;-70
2022/03/15 07:50:26;;;;;;;8.33;4.13;;;8.40;99.90;;;;;;5075170;28;20708;-70
2022/03/15 07:52:52;;;;;;;7.70;4.10;;;8.40;99.90;;;;;;5080481;28;20039;-69
2022/03/15 07:55:21;;;;;;;7.22;4.18;;;8.50;99.90;;;;;;5081477;28;20033;-70
2022/03/15 07:57:47;;;;;;;7.20;3.90;;;8.50;99.90;;;;;;5078984;28;20111;-70
2022/03/15 08:00:14;;;;;;;9.23;4.70;;;8.40;99.90;;;;;;5076851;28;20099;-70
2022/03/15 08:02:40;;;;;;;13.30;4.90;;;8.40;99.90;;;;;;5074600;28;20031;-70
2022/03/15 08:05:07;;;;;;;9.05;4.03;;;8.30;99.90;;;;;;5076287;28;20021;-70
2022/03/15 08:07:36;;;;;;;8.07;4.30;;;8.20;99.90;;;;;;5075982;28;20500;-70
2022/03/15 08:10:07;;;;;;;10.30;5.05;;;8.50;99.90;;;;;;5076483;28;20465;-70
2022/03/15 08:12:33;;;;;;;12.00;6.30;;;8.50;99.90;;;;;;5057620;28;20028;-71
2022/03/15 08:14:59;;;;;;;6.97;4.40;;;8.70;99.90;;;;;;5075250;28;20393;-70
2022/03/15 08:17:25;;;;;;;8.35;4.93;;;8.80;99.90;;;;;;5075654;28;20086;-71
2022/03/15 08:19:51;;;;;;;7.63;4.88;;;9.00;99.90;;;;;;5075621;28;20070;-71
2022/03/15 08:22:17;;;;;;;8.88;5.55;;;8.80;99.90;;;;;;5075296;28;20020;-71
2022/03/15 08:24:43;;;;;;;9.83;4.30;;;8.90;99.90;;;;;;5075892;28;20040;-71
2022/03/15 08:27:09;;;;;;;22.90;16.67;;;8.90;99.90;;;;;;5073818;28;20050;-71
2022/03/15 08:29:34;;;;;;;15.30;8.10;;;8.80;99.90;;;;;;5073684;28;20029;-71
2022/03/15 08:32:00;;;;;;;7.45;5.10;;;8.70;99.90;;;;;;5073766;28;20043;-70
2022/03/15 08:34:26;;;;;;;7.23;4.83;;;8.70;99.90;;;;;;5073837;28;20030;-70
2022/03/15 08:36:53;;;;;;;8.53;4.83;;;8.90;99.90;;;;;;5075101;28;20341;-70
2022/03/15 08:39:23;;;;;;;9.82;4.50;;;9.00;99.90;;;;;;5074987;28;20032;-70
2022/03/15 08:41:53;;;;;;;11.10;5.45;;;8.80;99.90;;;;;;5074353;28;20418;-71
2022/03/15 08:44:19;;;;;;;11.18;5.07;;;8.80;99.90;;;;;;5073883;28;20027;-71
2022/03/15 08:46:46;;;;;;;;;;;8.90;99.90;;;;;;5073730;28;20470;-71
2022/03/15 08:49:12;;;;;;;24.55;7.30;;;8.90;99.90;;;;;;5073278;28;19912;-71
2022/03/15 08:51:38;;;;;;;11.50;5.25;;;8.80;99.90;;;;;;5074621;28;20024;-71
2022/03/15 08:54:04;;;;;;;9.80;4.83;;;8.90;99.90;;;;;;5073511;28;20028;-71
2022/03/15 08:56:31;;;;;;;8.20;4.75;;;8.90;99.90;;;;;;5074900;28;20500;-71
2022/03/15 08:58:57;;;;;;;10.73;5.50;;;8.90;99.90;;;;;;5073261;28;20422;-70
2022/03/15 09:01:22;;;;;;;10.73;5.23;;;9.00;99.90;;;;;;5072889;28;20138;-70
2022/03/15 09:03:48;;;;;;;9.88;5.10;;;9.00;99.90;;;;;;5073040;28;20070;-71
2022/03/15 09:06:14;;;;;;;7.80;4.63;;;9.10;99.90;;;;;;5074194;28;20057;-71
2022/03/15 09:08:39;;;;;;;10.77;5.10;;;9.10;99.90;;;;;;5074716;28;20060;-71
2022/03/15 09:11:05;;;;;;;9.13;4.67;;;9.10;99.90;;;;;;5074588;28;20033;-71
2022/03/15 09:13:31;;;;;;;12.80;5.70;;;9.20;99.90;;;;;;5072395;28;20036;-71
2022/03/15 09:15:57;;;;;;;11.15;4.93;;;9.10;99.90;;;;;;5074490;28;20452;-71
2022/03/15 09:18:25;;;;;;;12.00;5.05;;;9.00;99.90;;;;;;5072845;28;20552;-71
2022/03/15 09:20:51;;;;;;;9.07;4.90;;;9.20;99.90;;;;;;5073241;28;20111;-70
2022/03/15 09:23:17;;;;;;;14.40;5.20;;;9.10;99.90;;;;;;5072911;28;20477;-71
2022/03/15 09:25:43;;;;;;;10.70;4.85;;;9.00;99.90;;;;;;5072818;28;20069;-70
2022/03/15 09:28:08;;;;;;;12.47;4.87;;;9.00;99.90;;;;;;5074354;28;20028;-71
2022/03/15 09:30:34;;;;;;;8.50;4.47;;;9.00;99.90;;;;;;5074383;28;20377;-70
2022/03/15 09:33:00;;;;;;;9.87;4.57;;;9.00;99.90;;;;;;5073625;28;20032;-70
2022/03/15 09:35:26;;;;;;;11.23;5.63;;;9.00;99.90;;;;;;5072135;28;20028;-71
2022/03/15 09:37:51;;;;;;;10.68;5.35;;;9.00;99.90;;;;;;5072635;28;20024;-71
2022/03/15 09:40:22;;;;;;;8.60;5.05;;;9.00;99.90;;;;;;5073924;28;20023;-71
2022/03/15 09:42:50;;;;;;;15.10;5.15;;;9.00;99.90;;;;;;5074298;28;20104;-70
2022/03/15 09:45:21;;;;;;;11.82;5.60;;;9.10;99.90;;;;;;5074020;28;20032;-70
2022/03/15 09:47:51;;;;;;;13.02;4.80;;;9.10;99.90;;;;;;5072436;28;20115;-69
2022/03/15 09:50:18;;;;;;;8.57;4.82;;;9.00;99.90;;;;;;5074064;28;20499;-71
2022/03/15 09:52:44;;;;;;;10.52;5.30;;;9.00;99.90;;;;;;5072412;28;20062;-70
2022/03/15 09:55:11;;;;;;;;;;;9.00;99.90;;;;;;5074301;28;20048;-71
2022/03/15 09:57:38;;;;;;;14.23;5.10;;;8.90;99.90;;;;;;5072686;28;19909;-70
2022/03/15 10:00:05;;;;;;;11.18;5.07;;;8.80;99.90;;;;;;5073599;28;20469;-70
2022/03/15 10:02:32;;;;;;;12.32;5.28;;;8.90;99.90;;;;;;5073943;28;20039;-71
2022/03/15 10:04:58;;;;;;;;;;;8.90;99.90;;;;;;5072731;28;20016;-72
2022/03/15 10:07:23;;;;;;;12.88;4.97;;;8.80;99.90;;;;;;5072208;28;19911;-70
2022/03/15 10:09:51;;;;;;;11.98;5.00;;;8.70;99.90;;;;;;5073398;28;20120;-71
2022/03/15 10:12:18;;;;;;;10.55;5.47;;;8.70;99.90;;;;;;5073503;28;20362;-70
2022/03/15 10:14:49;;;;;;;14.27;5.60;;;8.60;99.90;;;;;;5073524;28;20100;-71
2022/03/15 10:17:16;;;;;;;12.90;5.00;;;8.60;99.90;;;;;;5072311;28;20060;-70
2022/03/15 10:19:56;;;;;;;11.48;5.75;;;8.60;99.90;;;;;;5071997;28;20027;-71
2022/03/15 10:22:24;;;;;;;15.05;5.78;;;8.60;99.90;;;;;;5072218;28;20051;-70
2022/03/15 10:24:50;;;;;;;9.55;5.32;;;8.60;99.90;;;;;;5074184;28;20420;-70
2022/03/15 10:27:16;;;;;;;18.45;9.25;;;8.60;99.90;;;;;;5075965;28;20462;-70
2022/03/15 10:29:43;;;;;;;13.82;7.40;;;8.60;99.90;;;;;;5077065;28;20036;-71
2022/03/15 10:32:09;;;;;;;13.27;6.63;;;8.50;99.90;;;;;;5075634;28;20027;-71
2022/03/15 10:34:36;;;;;;;11.25;6.38;;;8.50;99.90;;;;;;5077007;28;20461;-70
2022/03/15 10:37:02;;;;;;;10.60;5.47;;;8.40;99.90;;;;;;5076750;28;20047;-70
2022/03/15 10:39:28;;;;;;;9.75;5.90;;;8.40;99.90;;;;;;5075925;28;20031;-70
2022/03/15 10:42:00;;;;;;;11.90;6.00;;;8.40;99.90;;;;;;5075673;28;20459;-69
2022/03/15 10:44:33;;;;;;;12.07;5.97;;;8.50;99.90;;;;;;5076227;28;20024;-71
2022/03/15 10:47:14;;;;;;;14.35;6.03;;;8.60;99.90;;;;;;5076723;28;20020;-70
2022/03/15 10:49:59;;;;;;;16.23;6.95;;;8.50;99.90;;;;;;5074998;28;20024;-70
2022/03/15 10:52:35;;;;;;;15.82;6.65;;;8.50;99.90;;;;;;5076657;28;20024;-70
2022/03/15 10:55:17;;;;;;;12.10;6.00;;;8.60;99.90;;;;;;5077130;28;20028;-70
2022/03/15 10:57:48;;;;;;;11.63;6.22;;;8.70;99.90;;;;;;5075616;28;20082;-70
2022/03/15 11:00:15;;;;;;;10.45;5.88;;;8.70;99.90;;;;;;5079279;28;20107;-69
2022/03/15 11:02:45;;;;;;;11.70;6.72;;;8.70;99.90;;;;;;5082391;28;20072;-71
2022/03/15 11:05:10;;;;;;;15.05;7.47;;;8.80;99.90;;;;;;5082922;28;20393;-71
2022/03/15 11:07:40;;;;;;;19.05;8.25;;;8.90;99.90;;;;;;5077556;28;20044;-70
2022/03/15 11:10:11;;;;;;;17.05;7.43;;;8.90;99.90;;;;;;5077580;28;20178;-70
2022/03/15 11:12:38;;;;;;;12.15;6.43;;;9.10;99.90;;;;;;5075455;28;20024;-71
2022/03/15 11:15:04;;;;;;;12.93;6.72;;;9.20;99.90;;;;;;5074802;28;20028;-70
2022/03/15 11:17:34;;;;;;;11.27;6.40;;;9.40;99.90;;;;;;5077185;28;20021;-71
2022/03/15 11:20:01;;;;;;;12.88;6.45;;;9.50;99.90;;;;;;5077395;28;20025;-71
2022/03/15 11:22:34;;;;;;;13.20;6.35;;;9.60;99.90;;;;;;5076317;28;20362;-71
2022/03/15 11:25:02;;;;;;;10.27;5.55;;;9.60;99.90;;;;;;5075849;28;20100;-70
2022/03/15 11:27:31;;;;;;;9.60;5.95;;;9.50;99.90;;;;;;5076095;28;20054;-70
2022/03/15 11:30:02;;;;;;;13.40;5.93;;;9.40;99.90;;;;;;5075771;28;20099;-69
2022/03/15 11:32:31;;;;;;;11.63;6.00;;;9.40;99.90;;;;;;5074289;28;20442;-70
2022/03/15 11:34:57;;;;;;;17.33;6.25;;;9.40;99.90;;;;;;5075769;28;20099;-71
2022/03/15 11:37:23;;;;;;;8.50;6.00;;;9.50;99.90;;;;;;5075304;28;20068;-70
2022/03/15 11:39:50;;;;;;;12.57;6.10;;;9.60;99.90;;;;;;5075718;28;20032;-71
2022/03/15 11:42:16;;;;;;;11.65;5.90;;;9.70;99.90;;;;;;5074517;28;20025;-71
2022/03/15 11:45:09;;;;;;;10.43;5.45;;;9.70;99.90;;;;;;5073991;28;20028;-71
2022/03/15 11:48:11;;;;;;;11.95;5.88;;;9.70;99.90;;;;;;5074787;28;20028;-71
2022/03/15 11:51:04;;;;;;;14.48;6.47;;;9.80;99.90;;;;;;5075926;28;20025;-71
2022/03/15 11:53:42;;;;;;;11.10;6.50;;;9.80;99.90;;;;;;5075242;28;20428;-72
2022/03/15 11:56:19;;;;;;;11.25;5.63;;;9.80;99.90;;;;;;5075697;28;20416;-71
2022/03/15 11:58:53;;;;;;;11.85;6.55;;;9.90;99.90;;;;;;5074227;28;20596;-71
2022/03/15 12:01:21;;;;;;;9.48;5.72;;;10.00;99.90;;;;;;5074114;28;20550;-70
2022/03/15 12:03:51;;;;;;;9.50;5.50;;;10.10;99.90;;;;;;5075479;28;20025;-71
2022/03/15 12:06:24;;;;;;;10.73;6.20;;;10.10;99.90;;;;;;5073748;28;20020;-71
2022/03/15 12:08:51;;;;;;;11.48;6.60;;;10.10;99.90;;;;;;5075038;28;20370;-69
2022/03/15 12:11:30;;;;;;;10.35;5.53;;;10.10;99.90;;;;;;5080423;28;20024;-68
2022/03/15 12:14:06;;;;;;;11.77;6.30;;;10.20;99.90;;;;;;5083459;28;20059;-69
2022/03/15 12:16:41;;;;;;;14.15;6.18;;;10.30;99.90;;;;;;5083044;28;20029;-69
2022/03/15 12:19:30;;;;;;;13.35;5.95;;;10.30;99.90;;;;;;5080259;28;20038;-69
2022/03/15 12:22:00;;;;;;;10.55;5.82;;;10.30;99.90;;;;;;5079280;28;20020;-69
2022/03/15 12:24:46;;;;;;;12.57;5.68;;;10.30;99.90;;;;;;5078995;28;20044;-68
2022/03/15 12:27:20;;;;;;;11.88;6.07;;;10.30;99.90;;;;;;5078781;28;20032;-69
2022/03/15 12:29:53;;;;;;;13.10;6.13;;;10.30;99.90;;;;;;5079237;28;20022;-69
2022/03/15 12:32:20;;;;;;;11.98;5.15;;;10.40;99.90;;;;;;5080139;28;20051;-69
2022/03/15 12:34:49;;;;;;;11.77;5.50;;;10.50;99.90;;;;;;5079232;28;20017;-69
2022/03/15 12:37:16;;;;;;;11.02;5.78;;;10.50;99.90;;;;;;5083610;28;20016;-69
2022/03/15 12:39:53;;;;;;;9.30;5.70;;;10.70;99.90;;;;;;5081580;28;20017;-69
2022/03/15 12:42:22;;;;;;;10.95;5.32;;;10.80;99.90;;;;;;5079915;28;20036;-70
2022/03/15 12:45:00;;;;;;;12.23;5.40;;;11.10;99.90;;;;;;5080705;28;20021;-68
2022/03/15 12:47:28;;;;;;;12.00;6.03;;;10.90;99.90;;;;;;5083859;28;20095;-69
2022/03/15 12:50:21;;;;;;;11.40;5.40;;;10.80;99.90;;;;;;5084399;28;20036;-68
2022/03/15 12:53:11;;;;;;;10.40;5.10;;;11.00;99.90;;;;;;5079751;28;20044;-68
2022/03/15 12:55:38;;;;;;;12.88;5.25;;;11.30;99.90;;;;;;5076268;28;20020;-68
2022/03/15 12:58:09;;;;;;;9.18;5.32;;;11.40;99.90;;;;;;5074732;28;20024;-69
2022/03/15 13:00:40;;;;;;;13.95;6.00;;;11.50;99.90;;;;;;5075878;28;20032;-69